<?xml version="1.0" encoding="UTF-8" standalone="no" ?>
<gpx xmlns="http://www.topografix.com/GPX/1/1" xmlns:xsi="http://www.w3.org/2001/XMLSchema-instance" xsi:schemaLocation="http://www.topografix.com/GPX/1/1 http://www.topografix.com/GPX/1/1/gpx.xsd" version="1.1" creator="VisuGPX - https://www.visugpx.com">
  <metadata>
    <name>Boucle de la Louyre à Ste Alvère</name>
    <desc><![CDATA[Le panneau des randonnées est situé sur le parking de la Poste. La boucle en elle-même fait 7km une fois que vous aurez terminé la liaison de départ/arrivée.
Boucle assez facile, 3 montées de maximum 500 mètres mais atteignant tout de même les 10 à 12% de pente moyenne. 

Attention! La boucle se croise à plusieurs reprise. Suivez bien cette trace même si parfois vous apercevrez des piquets au loin. Depuis des panneaux ont été rajouté pour différencier le passage aller et le chemin du retour.]]></desc>
  </metadata>
  <trk>
    <name><![CDATA[Boucle de la Louyre à Ste Alvère_1]]></name>
    <trkseg>
      <trkpt lat="44.9463" lon="0.80971">
        <ele>168.7</ele>
      </trkpt>
      <trkpt lat="44.94668" lon="0.80909">
        <ele>165.7</ele>
      </trkpt>
      <trkpt lat="44.94688" lon="0.80886">
        <ele>164.2</ele>
        <time>2021-05-23T10:06:15Z</time>
      </trkpt>
      <trkpt lat="44.94682" lon="0.80868">
        <ele>163.8</ele>
        <time>2021-05-23T10:06:19Z</time>
      </trkpt>
      <trkpt lat="44.94672" lon="0.8086">
        <ele>169.4</ele>
        <time>2021-05-23T10:06:24Z</time>
      </trkpt>
      <trkpt lat="44.94662" lon="0.80853">
        <ele>170</ele>
        <time>2021-05-23T10:06:28Z</time>
      </trkpt>
      <trkpt lat="44.9465" lon="0.80836">
        <ele>170</ele>
        <time>2021-05-23T10:06:32Z</time>
      </trkpt>
      <trkpt lat="44.94641" lon="0.80825">
        <ele>169.4</ele>
        <time>2021-05-23T10:06:36Z</time>
      </trkpt>
      <trkpt lat="44.94639" lon="0.80815">
        <ele>170.2</ele>
        <time>2021-05-23T10:06:40Z</time>
      </trkpt>
      <trkpt lat="44.94642" lon="0.80802">
        <ele>169</ele>
        <time>2021-05-23T10:06:44Z</time>
      </trkpt>
      <trkpt lat="44.94646" lon="0.80793">
        <ele>167.2</ele>
        <time>2021-05-23T10:06:48Z</time>
      </trkpt>
      <trkpt lat="44.94654" lon="0.80784">
        <ele>166.6</ele>
        <time>2021-05-23T10:06:52Z</time>
      </trkpt>
      <trkpt lat="44.94665" lon="0.80772">
        <ele>165.2</ele>
        <time>2021-05-23T10:06:56Z</time>
      </trkpt>
      <trkpt lat="44.94677" lon="0.80754">
        <ele>160</ele>
        <time>2021-05-23T10:07:00Z</time>
      </trkpt>
      <trkpt lat="44.94698" lon="0.80725">
        <ele>164.2</ele>
        <time>2021-05-23T10:07:04Z</time>
      </trkpt>
      <trkpt lat="44.94709" lon="0.80718">
        <ele>164.8</ele>
        <time>2021-05-23T10:07:08Z</time>
      </trkpt>
      <trkpt lat="44.94719" lon="0.80703">
        <ele>165</ele>
        <time>2021-05-23T10:07:13Z</time>
      </trkpt>
      <trkpt lat="44.94726" lon="0.80685">
        <ele>164</ele>
        <time>2021-05-23T10:07:17Z</time>
      </trkpt>
      <trkpt lat="44.94729" lon="0.80666">
        <ele>166</ele>
        <time>2021-05-23T10:07:21Z</time>
      </trkpt>
      <trkpt lat="44.94732" lon="0.80648">
        <ele>166.2</ele>
        <time>2021-05-23T10:07:25Z</time>
      </trkpt>
      <trkpt lat="44.94739" lon="0.80631">
        <ele>164.8</ele>
        <time>2021-05-23T10:07:29Z</time>
      </trkpt>
      <trkpt lat="44.94741" lon="0.80613">
        <ele>164.4</ele>
        <time>2021-05-23T10:07:33Z</time>
      </trkpt>
      <trkpt lat="44.94742" lon="0.80597">
        <ele>162.7</ele>
        <time>2021-05-23T10:07:37Z</time>
      </trkpt>
      <trkpt lat="44.94748" lon="0.80583">
        <ele>164</ele>
        <time>2021-05-23T10:07:41Z</time>
      </trkpt>
      <trkpt lat="44.94743" lon="0.80557">
        <ele>166</ele>
        <time>2021-05-23T10:07:45Z</time>
      </trkpt>
      <trkpt lat="44.94735" lon="0.80552">
        <ele>166.2</ele>
        <time>2021-05-23T10:07:49Z</time>
      </trkpt>
      <trkpt lat="44.94728" lon="0.80546">
        <ele>166.2</ele>
        <time>2021-05-23T10:07:53Z</time>
      </trkpt>
      <trkpt lat="44.94717" lon="0.80539">
        <ele>165.9</ele>
        <time>2021-05-23T10:07:57Z</time>
      </trkpt>
      <trkpt lat="44.94707" lon="0.80531">
        <ele>165.7</ele>
        <time>2021-05-23T10:08:02Z</time>
      </trkpt>
      <trkpt lat="44.94689" lon="0.80519">
        <ele>164.8</ele>
        <time>2021-05-23T10:08:06Z</time>
      </trkpt>
      <trkpt lat="44.94681" lon="0.80505">
        <ele>164.4</ele>
        <time>2021-05-23T10:08:10Z</time>
      </trkpt>
      <trkpt lat="44.94675" lon="0.80494">
        <ele>172.8</ele>
        <time>2021-05-23T10:08:14Z</time>
      </trkpt>
      <trkpt lat="44.94665" lon="0.80483">
        <ele>173.6</ele>
        <time>2021-05-23T10:08:18Z</time>
      </trkpt>
      <trkpt lat="44.94657" lon="0.80468">
        <ele>172.8</ele>
        <time>2021-05-23T10:08:22Z</time>
      </trkpt>
      <trkpt lat="44.94648" lon="0.80456">
        <ele>171.6</ele>
        <time>2021-05-23T10:08:26Z</time>
      </trkpt>
      <trkpt lat="44.94642" lon="0.8045">
        <ele>171</ele>
        <time>2021-05-23T10:08:30Z</time>
      </trkpt>
      <trkpt lat="44.94638" lon="0.80448">
        <ele>170.2</ele>
        <time>2021-05-23T10:08:34Z</time>
      </trkpt>
      <trkpt lat="44.94623" lon="0.80437">
        <ele>169.6</ele>
        <time>2021-05-23T10:08:38Z</time>
      </trkpt>
      <trkpt lat="44.94609" lon="0.80426">
        <ele>169.8</ele>
        <time>2021-05-23T10:08:42Z</time>
      </trkpt>
      <trkpt lat="44.94598" lon="0.80413">
        <ele>170</ele>
        <time>2021-05-23T10:08:46Z</time>
      </trkpt>
      <trkpt lat="44.94584" lon="0.80396">
        <ele>168.8</ele>
        <time>2021-05-23T10:08:51Z</time>
      </trkpt>
      <trkpt lat="44.94573" lon="0.80384">
        <ele>168</ele>
        <time>2021-05-23T10:08:55Z</time>
      </trkpt>
      <trkpt lat="44.94561" lon="0.80372">
        <ele>167.2</ele>
        <time>2021-05-23T10:08:59Z</time>
      </trkpt>
      <trkpt lat="44.94548" lon="0.80362">
        <ele>167</ele>
        <time>2021-05-23T10:09:03Z</time>
      </trkpt>
      <trkpt lat="44.94536" lon="0.80354">
        <ele>167.8</ele>
        <time>2021-05-23T10:09:07Z</time>
      </trkpt>
      <trkpt lat="44.94527" lon="0.80343">
        <ele>171</ele>
        <time>2021-05-23T10:09:11Z</time>
      </trkpt>
      <trkpt lat="44.94518" lon="0.80332">
        <ele>173</ele>
        <time>2021-05-23T10:09:15Z</time>
      </trkpt>
      <trkpt lat="44.94508" lon="0.8032">
        <ele>173</ele>
        <time>2021-05-23T10:09:19Z</time>
      </trkpt>
      <trkpt lat="44.94501" lon="0.80305">
        <ele>171.6</ele>
        <time>2021-05-23T10:09:23Z</time>
      </trkpt>
      <trkpt lat="44.94494" lon="0.8029">
        <ele>170.4</ele>
        <time>2021-05-23T10:09:27Z</time>
      </trkpt>
      <trkpt lat="44.94491" lon="0.80271">
        <ele>170.4</ele>
        <time>2021-05-23T10:09:31Z</time>
      </trkpt>
      <trkpt lat="44.94487" lon="0.80254">
        <ele>169.6</ele>
        <time>2021-05-23T10:09:35Z</time>
      </trkpt>
      <trkpt lat="44.94482" lon="0.80229">
        <ele>167.8</ele>
        <time>2021-05-23T10:09:40Z</time>
      </trkpt>
      <trkpt lat="44.94478" lon="0.8021">
        <ele>167</ele>
        <time>2021-05-23T10:09:44Z</time>
      </trkpt>
      <trkpt lat="44.94476" lon="0.80192">
        <ele>166.2</ele>
        <time>2021-05-23T10:09:48Z</time>
      </trkpt>
      <trkpt lat="44.94473" lon="0.80174">
        <ele>164.4</ele>
        <time>2021-05-23T10:09:52Z</time>
      </trkpt>
      <trkpt lat="44.94469" lon="0.80158">
        <ele>164.8</ele>
        <time>2021-05-23T10:09:56Z</time>
      </trkpt>
      <trkpt lat="44.94463" lon="0.80141">
        <ele>164.6</ele>
        <time>2021-05-23T10:10:00Z</time>
      </trkpt>
      <trkpt lat="44.9446" lon="0.80124">
        <ele>163</ele>
        <time>2021-05-23T10:10:04Z</time>
      </trkpt>
      <trkpt lat="44.94457" lon="0.80107">
        <ele>162.4</ele>
        <time>2021-05-23T10:10:08Z</time>
      </trkpt>
      <trkpt lat="44.94452" lon="0.8009">
        <ele>162.6</ele>
        <time>2021-05-23T10:10:12Z</time>
      </trkpt>
      <trkpt lat="44.94445" lon="0.80071">
        <ele>162</ele>
        <time>2021-05-23T10:10:16Z</time>
      </trkpt>
      <trkpt lat="44.94439" lon="0.8005">
        <ele>161.4</ele>
        <time>2021-05-23T10:10:20Z</time>
      </trkpt>
      <trkpt lat="44.94433" lon="0.8003">
        <ele>160.6</ele>
        <time>2021-05-23T10:10:24Z</time>
      </trkpt>
      <trkpt lat="44.94426" lon="0.80005">
        <ele>161.6</ele>
        <time>2021-05-23T10:10:29Z</time>
      </trkpt>
      <trkpt lat="44.94421" lon="0.79984">
        <ele>160.8</ele>
        <time>2021-05-23T10:10:33Z</time>
      </trkpt>
      <trkpt lat="44.94416" lon="0.79967">
        <ele>159.8</ele>
        <time>2021-05-23T10:10:37Z</time>
      </trkpt>
      <trkpt lat="44.94411" lon="0.79949">
        <ele>161.2</ele>
        <time>2021-05-23T10:10:41Z</time>
      </trkpt>
      <trkpt lat="44.94407" lon="0.7993">
        <ele>157.8</ele>
        <time>2021-05-23T10:10:45Z</time>
      </trkpt>
      <trkpt lat="44.94402" lon="0.79912">
        <ele>158.3</ele>
        <time>2021-05-23T10:10:49Z</time>
      </trkpt>
      <trkpt lat="44.94397" lon="0.79891">
        <ele>160.8</ele>
        <time>2021-05-23T10:10:53Z</time>
      </trkpt>
      <trkpt lat="44.94392" lon="0.79873">
        <ele>161.4</ele>
        <time>2021-05-23T10:10:57Z</time>
      </trkpt>
      <trkpt lat="44.94386" lon="0.79856">
        <ele>158.6</ele>
        <time>2021-05-23T10:11:01Z</time>
      </trkpt>
      <trkpt lat="44.94381" lon="0.79838">
        <ele>158.6</ele>
        <time>2021-05-23T10:11:05Z</time>
      </trkpt>
      <trkpt lat="44.94375" lon="0.7982">
        <ele>159.8</ele>
        <time>2021-05-23T10:11:09Z</time>
      </trkpt>
      <trkpt lat="44.94371" lon="0.79799">
        <ele>161</ele>
        <time>2021-05-23T10:11:13Z</time>
      </trkpt>
      <trkpt lat="44.94363" lon="0.79782">
        <ele>159</ele>
        <time>2021-05-23T10:11:17Z</time>
      </trkpt>
      <trkpt lat="44.94358" lon="0.79761">
        <ele>158.6</ele>
        <time>2021-05-23T10:11:22Z</time>
      </trkpt>
      <trkpt lat="44.94352" lon="0.79745">
        <ele>157.6</ele>
        <time>2021-05-23T10:11:26Z</time>
      </trkpt>
      <trkpt lat="44.94346" lon="0.79726">
        <ele>156.3</ele>
        <time>2021-05-23T10:11:30Z</time>
      </trkpt>
      <trkpt lat="44.94342" lon="0.79709">
        <ele>155.1</ele>
        <time>2021-05-23T10:11:34Z</time>
      </trkpt>
      <trkpt lat="44.94339" lon="0.79693">
        <ele>161.2</ele>
        <time>2021-05-23T10:11:38Z</time>
      </trkpt>
      <trkpt lat="44.94333" lon="0.79679">
        <ele>161.8</ele>
        <time>2021-05-23T10:11:42Z</time>
      </trkpt>
      <trkpt lat="44.9433" lon="0.7966">
        <ele>161.8</ele>
        <time>2021-05-23T10:11:46Z</time>
      </trkpt>
      <trkpt lat="44.94327" lon="0.79643">
        <ele>159.2</ele>
        <time>2021-05-23T10:11:50Z</time>
      </trkpt>
      <trkpt lat="44.94324" lon="0.79625">
        <ele>158.2</ele>
        <time>2021-05-23T10:11:54Z</time>
      </trkpt>
      <trkpt lat="44.94321" lon="0.79606">
        <ele>158.8</ele>
        <time>2021-05-23T10:11:58Z</time>
      </trkpt>
      <trkpt lat="44.94316" lon="0.79587">
        <ele>159.4</ele>
        <time>2021-05-23T10:12:02Z</time>
      </trkpt>
      <trkpt lat="44.94312" lon="0.79569">
        <ele>159.2</ele>
        <time>2021-05-23T10:12:06Z</time>
      </trkpt>
      <trkpt lat="44.94308" lon="0.79548">
        <ele>158.4</ele>
        <time>2021-05-23T10:12:11Z</time>
      </trkpt>
      <trkpt lat="44.94306" lon="0.79528">
        <ele>158.4</ele>
        <time>2021-05-23T10:12:15Z</time>
      </trkpt>
      <trkpt lat="44.94302" lon="0.79509">
        <ele>160</ele>
        <time>2021-05-23T10:12:19Z</time>
      </trkpt>
      <trkpt lat="44.94297" lon="0.7949">
        <ele>158.6</ele>
        <time>2021-05-23T10:12:23Z</time>
      </trkpt>
      <trkpt lat="44.94289" lon="0.79471">
        <ele>157.8</ele>
        <time>2021-05-23T10:12:27Z</time>
      </trkpt>
      <trkpt lat="44.94282" lon="0.79453">
        <ele>159.2</ele>
        <time>2021-05-23T10:12:31Z</time>
      </trkpt>
      <trkpt lat="44.94273" lon="0.79437">
        <ele>158.6</ele>
        <time>2021-05-23T10:12:35Z</time>
      </trkpt>
      <trkpt lat="44.94266" lon="0.79421">
        <ele>156.2</ele>
        <time>2021-05-23T10:12:39Z</time>
      </trkpt>
      <trkpt lat="44.94259" lon="0.79407">
        <ele>155.8</ele>
        <time>2021-05-23T10:12:43Z</time>
      </trkpt>
      <trkpt lat="44.94251" lon="0.79391">
        <ele>155.6</ele>
        <time>2021-05-23T10:12:47Z</time>
      </trkpt>
      <trkpt lat="44.94244" lon="0.79376">
        <ele>155.4</ele>
        <time>2021-05-23T10:12:51Z</time>
      </trkpt>
      <trkpt lat="44.94237" lon="0.79359">
        <ele>151.4</ele>
        <time>2021-05-23T10:12:55Z</time>
      </trkpt>
      <trkpt lat="44.94229" lon="0.79336">
        <ele>150.9</ele>
        <time>2021-05-23T10:13:00Z</time>
      </trkpt>
      <trkpt lat="44.94223" lon="0.79313">
        <ele>150.1</ele>
        <time>2021-05-23T10:13:04Z</time>
      </trkpt>
      <trkpt lat="44.9422" lon="0.79292">
        <ele>149.6</ele>
        <time>2021-05-23T10:13:08Z</time>
      </trkpt>
      <trkpt lat="44.94218" lon="0.7927">
        <ele>149.2</ele>
        <time>2021-05-23T10:13:12Z</time>
      </trkpt>
      <trkpt lat="44.94219" lon="0.79246">
        <ele>149</ele>
        <time>2021-05-23T10:13:16Z</time>
      </trkpt>
      <trkpt lat="44.94221" lon="0.7922">
        <ele>149.3</ele>
        <time>2021-05-23T10:13:20Z</time>
      </trkpt>
      <trkpt lat="44.94223" lon="0.79199">
        <ele>149.6</ele>
        <time>2021-05-23T10:13:24Z</time>
      </trkpt>
      <trkpt lat="44.94228" lon="0.79181">
        <ele>150.1</ele>
        <time>2021-05-23T10:13:28Z</time>
      </trkpt>
      <trkpt lat="44.94227" lon="0.79162">
        <ele>150</ele>
        <time>2021-05-23T10:13:32Z</time>
      </trkpt>
      <trkpt lat="44.94226" lon="0.79147">
        <ele>149.8</ele>
        <time>2021-05-23T10:13:36Z</time>
      </trkpt>
      <trkpt lat="44.94226" lon="0.79134">
        <ele>149.6</ele>
        <time>2021-05-23T10:13:40Z</time>
      </trkpt>
      <trkpt lat="44.94224" lon="0.79118">
        <ele>149.3</ele>
        <time>2021-05-23T10:13:44Z</time>
      </trkpt>
      <trkpt lat="44.94223" lon="0.79099">
        <ele>148.9</ele>
        <time>2021-05-23T10:13:49Z</time>
      </trkpt>
      <trkpt lat="44.94222" lon="0.79084">
        <ele>148.7</ele>
        <time>2021-05-23T10:13:53Z</time>
      </trkpt>
      <trkpt lat="44.94221" lon="0.7907">
        <ele>149.2</ele>
        <time>2021-05-23T10:13:57Z</time>
      </trkpt>
      <trkpt lat="44.94221" lon="0.79051">
        <ele>150.1</ele>
        <time>2021-05-23T10:14:01Z</time>
      </trkpt>
      <trkpt lat="44.94216" lon="0.7903">
        <ele>150.5</ele>
        <time>2021-05-23T10:14:05Z</time>
      </trkpt>
      <trkpt lat="44.94212" lon="0.79009">
        <ele>151</ele>
        <time>2021-05-23T10:14:09Z</time>
      </trkpt>
      <trkpt lat="44.94207" lon="0.78992">
        <ele>151.3</ele>
        <time>2021-05-23T10:14:13Z</time>
      </trkpt>
      <trkpt lat="44.942" lon="0.78974">
        <ele>151.3</ele>
        <time>2021-05-23T10:14:17Z</time>
      </trkpt>
      <trkpt lat="44.94192" lon="0.78952">
        <ele>151.5</ele>
        <time>2021-05-23T10:14:21Z</time>
      </trkpt>
      <trkpt lat="44.94186" lon="0.78936">
        <ele>151.6</ele>
        <time>2021-05-23T10:14:25Z</time>
      </trkpt>
      <trkpt lat="44.94179" lon="0.78919">
        <ele>151.4</ele>
        <time>2021-05-23T10:14:29Z</time>
      </trkpt>
      <trkpt lat="44.94169" lon="0.78904">
        <ele>151</ele>
        <time>2021-05-23T10:14:33Z</time>
      </trkpt>
      <trkpt lat="44.9416" lon="0.78889">
        <ele>151.1</ele>
        <time>2021-05-23T10:14:38Z</time>
      </trkpt>
      <trkpt lat="44.94152" lon="0.78875">
        <ele>151</ele>
        <time>2021-05-23T10:14:42Z</time>
      </trkpt>
      <trkpt lat="44.94145" lon="0.78864">
        <ele>150.7</ele>
        <time>2021-05-23T10:14:46Z</time>
      </trkpt>
      <trkpt lat="44.94137" lon="0.78847">
        <ele>150.5</ele>
        <time>2021-05-23T10:14:50Z</time>
      </trkpt>
      <trkpt lat="44.94123" lon="0.78823">
        <ele>149.3</ele>
        <time>2021-05-23T10:14:54Z</time>
      </trkpt>
      <trkpt lat="44.94112" lon="0.78804">
        <ele>148</ele>
        <time>2021-05-23T10:14:58Z</time>
      </trkpt>
      <trkpt lat="44.94102" lon="0.78786">
        <ele>154.8</ele>
        <time>2021-05-23T10:15:02Z</time>
      </trkpt>
      <trkpt lat="44.94093" lon="0.78768">
        <ele>153.8</ele>
        <time>2021-05-23T10:15:06Z</time>
      </trkpt>
      <trkpt lat="44.94084" lon="0.78754">
        <ele>146</ele>
        <time>2021-05-23T10:15:10Z</time>
      </trkpt>
      <trkpt lat="44.94075" lon="0.78739">
        <ele>146.6</ele>
        <time>2021-05-23T10:15:14Z</time>
      </trkpt>
      <trkpt lat="44.94067" lon="0.78728">
        <ele>147</ele>
        <time>2021-05-23T10:15:18Z</time>
      </trkpt>
      <trkpt lat="44.94057" lon="0.78712">
        <ele>147.2</ele>
        <time>2021-05-23T10:15:22Z</time>
      </trkpt>
      <trkpt lat="44.94046" lon="0.78694">
        <ele>153.4</ele>
        <time>2021-05-23T10:15:27Z</time>
      </trkpt>
      <trkpt lat="44.94037" lon="0.78681">
        <ele>154</ele>
        <time>2021-05-23T10:15:31Z</time>
      </trkpt>
      <trkpt lat="44.94028" lon="0.78667">
        <ele>154.8</ele>
        <time>2021-05-23T10:15:35Z</time>
      </trkpt>
      <trkpt lat="44.94023" lon="0.78646">
        <ele>153.8</ele>
        <time>2021-05-23T10:15:39Z</time>
      </trkpt>
      <trkpt lat="44.94019" lon="0.78629">
        <ele>153.2</ele>
        <time>2021-05-23T10:15:43Z</time>
      </trkpt>
      <trkpt lat="44.94014" lon="0.78609">
        <ele>152.6</ele>
        <time>2021-05-23T10:15:47Z</time>
      </trkpt>
      <trkpt lat="44.9401" lon="0.78592">
        <ele>152.4</ele>
        <time>2021-05-23T10:15:51Z</time>
      </trkpt>
      <trkpt lat="44.94007" lon="0.7857">
        <ele>145</ele>
        <time>2021-05-23T10:15:55Z</time>
      </trkpt>
      <trkpt lat="44.94003" lon="0.78549">
        <ele>144.2</ele>
        <time>2021-05-23T10:15:59Z</time>
      </trkpt>
      <trkpt lat="44.94" lon="0.78532">
        <ele>143.5</ele>
        <time>2021-05-23T10:16:03Z</time>
      </trkpt>
      <trkpt lat="44.93998" lon="0.78516">
        <ele>143.1</ele>
        <time>2021-05-23T10:16:07Z</time>
      </trkpt>
      <trkpt lat="44.93995" lon="0.785">
        <ele>142.8</ele>
        <time>2021-05-23T10:16:11Z</time>
      </trkpt>
      <trkpt lat="44.93994" lon="0.78475">
        <ele>142.5</ele>
        <time>2021-05-23T10:16:16Z</time>
      </trkpt>
      <trkpt lat="44.93993" lon="0.78449">
        <ele>142.2</ele>
        <time>2021-05-23T10:16:20Z</time>
      </trkpt>
      <trkpt lat="44.93991" lon="0.78432">
        <ele>142</ele>
        <time>2021-05-23T10:16:24Z</time>
      </trkpt>
      <trkpt lat="44.93991" lon="0.78414">
        <ele>141.8</ele>
        <time>2021-05-23T10:16:28Z</time>
      </trkpt>
      <trkpt lat="44.9399" lon="0.78392">
        <ele>141.7</ele>
        <time>2021-05-23T10:16:32Z</time>
      </trkpt>
      <trkpt lat="44.93988" lon="0.78374">
        <ele>141.6</ele>
        <time>2021-05-23T10:16:36Z</time>
      </trkpt>
      <trkpt lat="44.93985" lon="0.78358">
        <ele>141.4</ele>
        <time>2021-05-23T10:16:40Z</time>
      </trkpt>
      <trkpt lat="44.93983" lon="0.78342">
        <ele>141.2</ele>
        <time>2021-05-23T10:16:44Z</time>
      </trkpt>
      <trkpt lat="44.93979" lon="0.78325">
        <ele>141.4</ele>
        <time>2021-05-23T10:16:48Z</time>
      </trkpt>
      <trkpt lat="44.93978" lon="0.78307">
        <ele>142.1</ele>
        <time>2021-05-23T10:16:52Z</time>
      </trkpt>
      <trkpt lat="44.93977" lon="0.78292">
        <ele>142.6</ele>
        <time>2021-05-23T10:16:56Z</time>
      </trkpt>
      <trkpt lat="44.93974" lon="0.78275">
        <ele>143.1</ele>
        <time>2021-05-23T10:17:00Z</time>
      </trkpt>
      <trkpt lat="44.93972" lon="0.78257">
        <ele>154.4</ele>
        <time>2021-05-23T10:17:04Z</time>
      </trkpt>
      <trkpt lat="44.93971" lon="0.78234">
        <ele>144.5</ele>
        <time>2021-05-23T10:17:09Z</time>
      </trkpt>
      <trkpt lat="44.93968" lon="0.78212">
        <ele>145.1</ele>
        <time>2021-05-23T10:17:13Z</time>
      </trkpt>
      <trkpt lat="44.93966" lon="0.78194">
        <ele>145.5</ele>
        <time>2021-05-23T10:17:17Z</time>
      </trkpt>
      <trkpt lat="44.93961" lon="0.78179">
        <ele>145.4</ele>
        <time>2021-05-23T10:17:21Z</time>
      </trkpt>
      <trkpt lat="44.93958" lon="0.7816">
        <ele>145.7</ele>
        <time>2021-05-23T10:17:25Z</time>
      </trkpt>
      <trkpt lat="44.93954" lon="0.78144">
        <ele>145.9</ele>
        <time>2021-05-23T10:17:29Z</time>
      </trkpt>
      <trkpt lat="44.93953" lon="0.78125">
        <ele>146.5</ele>
        <time>2021-05-23T10:17:33Z</time>
      </trkpt>
      <trkpt lat="44.93951" lon="0.78104">
        <ele>146.9</ele>
        <time>2021-05-23T10:17:37Z</time>
      </trkpt>
      <trkpt lat="44.9395" lon="0.78085">
        <ele>147.5</ele>
        <time>2021-05-23T10:17:41Z</time>
      </trkpt>
      <trkpt lat="44.93945" lon="0.78064">
        <ele>147</ele>
        <time>2021-05-23T10:17:45Z</time>
      </trkpt>
      <trkpt lat="44.93941" lon="0.78047">
        <ele>146.5</ele>
        <time>2021-05-23T10:17:49Z</time>
      </trkpt>
      <trkpt lat="44.93936" lon="0.78032">
        <ele>146.1</ele>
        <time>2021-05-23T10:17:53Z</time>
      </trkpt>
      <trkpt lat="44.93932" lon="0.78015">
        <ele>145.8</ele>
        <time>2021-05-23T10:17:58Z</time>
      </trkpt>
      <trkpt lat="44.93927" lon="0.77998">
        <ele>145.5</ele>
        <time>2021-05-23T10:18:02Z</time>
      </trkpt>
      <trkpt lat="44.93921" lon="0.77981">
        <ele>146.1</ele>
        <time>2021-05-23T10:18:06Z</time>
      </trkpt>
      <trkpt lat="44.93916" lon="0.77963">
        <ele>154</ele>
        <time>2021-05-23T10:18:10Z</time>
      </trkpt>
      <trkpt lat="44.9391" lon="0.77943">
        <ele>147.9</ele>
        <time>2021-05-23T10:18:14Z</time>
      </trkpt>
      <trkpt lat="44.93904" lon="0.77926">
        <ele>148.6</ele>
        <time>2021-05-23T10:18:18Z</time>
      </trkpt>
      <trkpt lat="44.93894" lon="0.7791">
        <ele>148.7</ele>
        <time>2021-05-23T10:18:22Z</time>
      </trkpt>
      <trkpt lat="44.93886" lon="0.77899">
        <ele>152.2</ele>
        <time>2021-05-23T10:18:26Z</time>
      </trkpt>
      <trkpt lat="44.93878" lon="0.77884">
        <ele>152</ele>
        <time>2021-05-23T10:18:30Z</time>
      </trkpt>
      <trkpt lat="44.93866" lon="0.77867">
        <ele>149.1</ele>
        <time>2021-05-23T10:18:34Z</time>
      </trkpt>
      <trkpt lat="44.93855" lon="0.77854">
        <ele>153.6</ele>
        <time>2021-05-23T10:18:39Z</time>
      </trkpt>
      <trkpt lat="44.93847" lon="0.77843">
        <ele>152.8</ele>
        <time>2021-05-23T10:18:43Z</time>
      </trkpt>
      <trkpt lat="44.93837" lon="0.77823">
        <ele>150.6</ele>
        <time>2021-05-23T10:18:48Z</time>
      </trkpt>
      <trkpt lat="44.93827" lon="0.77809">
        <ele>151.6</ele>
        <time>2021-05-23T10:18:52Z</time>
      </trkpt>
      <trkpt lat="44.93818" lon="0.77799">
        <ele>153.6</ele>
        <time>2021-05-23T10:18:56Z</time>
      </trkpt>
      <trkpt lat="44.93808" lon="0.77785">
        <ele>151.8</ele>
        <time>2021-05-23T10:19:00Z</time>
      </trkpt>
      <trkpt lat="44.93802" lon="0.77769">
        <ele>146.6</ele>
        <time>2021-05-23T10:19:04Z</time>
      </trkpt>
      <trkpt lat="44.93795" lon="0.77752">
        <ele>146.3</ele>
        <time>2021-05-23T10:19:08Z</time>
      </trkpt>
      <trkpt lat="44.93788" lon="0.77741">
        <ele>150.6</ele>
        <time>2021-05-23T10:19:11Z</time>
      </trkpt>
      <trkpt lat="44.93794" lon="0.77722">
        <ele>146.3</ele>
        <time>2021-05-23T09:43:22Z</time>
      </trkpt>
      <trkpt lat="44.93799" lon="0.77713">
        <ele>146.9</ele>
        <time>2021-05-23T09:43:24Z</time>
      </trkpt>
      <trkpt lat="44.93808" lon="0.77703">
        <ele>148.2</ele>
        <time>2021-05-23T09:43:28Z</time>
      </trkpt>
      <trkpt lat="44.93819" lon="0.7769">
        <ele>149.4</ele>
        <time>2021-05-23T09:43:32Z</time>
      </trkpt>
      <trkpt lat="44.93827" lon="0.7768">
        <ele>150.4</ele>
        <time>2021-05-23T09:43:36Z</time>
      </trkpt>
      <trkpt lat="44.93836" lon="0.77667">
        <ele>151.5</ele>
        <time>2021-05-23T09:43:40Z</time>
      </trkpt>
      <trkpt lat="44.93844" lon="0.77655">
        <ele>152.7</ele>
        <time>2021-05-23T09:43:44Z</time>
      </trkpt>
      <trkpt lat="44.93852" lon="0.77639">
        <ele>153.6</ele>
        <time>2021-05-23T09:43:49Z</time>
      </trkpt>
      <trkpt lat="44.93859" lon="0.77628">
        <ele>154.3</ele>
        <time>2021-05-23T09:43:53Z</time>
      </trkpt>
      <trkpt lat="44.93866" lon="0.77614">
        <ele>154.7</ele>
        <time>2021-05-23T09:43:57Z</time>
      </trkpt>
      <trkpt lat="44.93873" lon="0.77603">
        <ele>155.2</ele>
        <time>2021-05-23T09:44:01Z</time>
      </trkpt>
      <trkpt lat="44.93883" lon="0.77594">
        <ele>156</ele>
        <time>2021-05-23T09:44:05Z</time>
      </trkpt>
      <trkpt lat="44.93894" lon="0.7759">
        <ele>156.9</ele>
        <time>2021-05-23T09:44:09Z</time>
      </trkpt>
      <trkpt lat="44.93902" lon="0.77588">
        <ele>157.8</ele>
        <time>2021-05-23T09:44:13Z</time>
      </trkpt>
      <trkpt lat="44.93913" lon="0.77587">
        <ele>158.9</ele>
        <time>2021-05-23T09:44:17Z</time>
      </trkpt>
      <trkpt lat="44.93929" lon="0.77593">
        <ele>160.8</ele>
        <time>2021-05-23T09:44:21Z</time>
      </trkpt>
      <trkpt lat="44.93925" lon="0.77601">
        <ele>161.1</ele>
        <time>2021-05-23T09:44:25Z</time>
      </trkpt>
      <trkpt lat="44.9392" lon="0.7761">
        <ele>161.5</ele>
        <time>2021-05-23T09:44:29Z</time>
      </trkpt>
      <trkpt lat="44.93917" lon="0.77622">
        <ele>162.3</ele>
        <time>2021-05-23T09:44:33Z</time>
      </trkpt>
      <trkpt lat="44.93913" lon="0.77651">
        <ele>164.1</ele>
        <time>2021-05-23T09:44:38Z</time>
      </trkpt>
      <trkpt lat="44.93916" lon="0.77669">
        <ele>166</ele>
        <time>2021-05-23T09:44:42Z</time>
      </trkpt>
      <trkpt lat="44.93923" lon="0.77683">
        <ele>166.9</ele>
        <time>2021-05-23T09:44:46Z</time>
      </trkpt>
      <trkpt lat="44.9393" lon="0.77697">
        <ele>167.8</ele>
        <time>2021-05-23T09:44:50Z</time>
      </trkpt>
      <trkpt lat="44.93942" lon="0.7771">
        <ele>169.3</ele>
        <time>2021-05-23T09:44:54Z</time>
      </trkpt>
      <trkpt lat="44.93952" lon="0.77715">
        <ele>180.8</ele>
        <time>2021-05-23T09:44:58Z</time>
      </trkpt>
      <trkpt lat="44.9396" lon="0.77723">
        <ele>184</ele>
        <time>2021-05-23T09:45:02Z</time>
      </trkpt>
      <trkpt lat="44.93971" lon="0.77731">
        <ele>185.2</ele>
        <time>2021-05-23T09:45:06Z</time>
      </trkpt>
      <trkpt lat="44.93984" lon="0.77743">
        <ele>174.9</ele>
        <time>2021-05-23T09:45:10Z</time>
      </trkpt>
      <trkpt lat="44.93993" lon="0.77759">
        <ele>175.5</ele>
        <time>2021-05-23T09:45:14Z</time>
      </trkpt>
      <trkpt lat="44.94004" lon="0.77777">
        <ele>174.9</ele>
        <time>2021-05-23T09:45:18Z</time>
      </trkpt>
      <trkpt lat="44.94014" lon="0.77784">
        <ele>174.7</ele>
        <time>2021-05-23T09:45:22Z</time>
      </trkpt>
      <trkpt lat="44.94034" lon="0.77776">
        <ele>186</ele>
        <time>2021-05-23T09:45:27Z</time>
      </trkpt>
      <trkpt lat="44.94041" lon="0.7777">
        <ele>176.9</ele>
        <time>2021-05-23T09:45:31Z</time>
      </trkpt>
      <trkpt lat="44.94046" lon="0.77759">
        <ele>178</ele>
        <time>2021-05-23T09:45:35Z</time>
      </trkpt>
      <trkpt lat="44.94054" lon="0.7775">
        <ele>178.9</ele>
        <time>2021-05-23T09:45:39Z</time>
      </trkpt>
      <trkpt lat="44.94065" lon="0.77742">
        <ele>179.2</ele>
        <time>2021-05-23T09:45:43Z</time>
      </trkpt>
      <trkpt lat="44.94075" lon="0.77732">
        <ele>191.4</ele>
        <time>2021-05-23T09:45:47Z</time>
      </trkpt>
      <trkpt lat="44.94085" lon="0.77722">
        <ele>191.2</ele>
        <time>2021-05-23T09:45:51Z</time>
      </trkpt>
      <trkpt lat="44.9409" lon="0.77732">
        <ele>180.3</ele>
        <time>2021-05-23T09:45:55Z</time>
      </trkpt>
      <trkpt lat="44.94092" lon="0.77747">
        <ele>180.3</ele>
        <time>2021-05-23T09:45:59Z</time>
      </trkpt>
      <trkpt lat="44.94097" lon="0.77766">
        <ele>179.6</ele>
        <time>2021-05-23T09:46:05Z</time>
      </trkpt>
      <trkpt lat="44.94103" lon="0.77795">
        <ele>178.7</ele>
        <time>2021-05-23T09:46:09Z</time>
      </trkpt>
      <trkpt lat="44.94109" lon="0.77818">
        <ele>178.5</ele>
        <time>2021-05-23T09:46:13Z</time>
      </trkpt>
      <trkpt lat="44.94113" lon="0.77839">
        <ele>178.7</ele>
        <time>2021-05-23T09:46:17Z</time>
      </trkpt>
      <trkpt lat="44.94114" lon="0.77858">
        <ele>179.2</ele>
        <time>2021-05-23T09:46:22Z</time>
      </trkpt>
      <trkpt lat="44.94115" lon="0.77875">
        <ele>179.6</ele>
        <time>2021-05-23T09:46:26Z</time>
      </trkpt>
      <trkpt lat="44.94114" lon="0.77892">
        <ele>179.7</ele>
        <time>2021-05-23T09:46:30Z</time>
      </trkpt>
      <trkpt lat="44.94112" lon="0.77908">
        <ele>179.7</ele>
        <time>2021-05-23T09:46:34Z</time>
      </trkpt>
      <trkpt lat="44.94112" lon="0.77925">
        <ele>180</ele>
        <time>2021-05-23T09:46:38Z</time>
      </trkpt>
      <trkpt lat="44.94111" lon="0.77941">
        <ele>180</ele>
        <time>2021-05-23T09:46:42Z</time>
      </trkpt>
      <trkpt lat="44.94108" lon="0.7796">
        <ele>180</ele>
        <time>2021-05-23T09:46:46Z</time>
      </trkpt>
      <trkpt lat="44.94106" lon="0.77974">
        <ele>179.7</ele>
        <time>2021-05-23T09:46:50Z</time>
      </trkpt>
      <trkpt lat="44.94104" lon="0.7799">
        <ele>179.7</ele>
        <time>2021-05-23T09:46:54Z</time>
      </trkpt>
      <trkpt lat="44.94106" lon="0.78007">
        <ele>180</ele>
        <time>2021-05-23T09:46:58Z</time>
      </trkpt>
      <trkpt lat="44.94106" lon="0.78023">
        <ele>179.6</ele>
        <time>2021-05-23T09:47:02Z</time>
      </trkpt>
      <trkpt lat="44.94107" lon="0.7804">
        <ele>179.5</ele>
        <time>2021-05-23T09:47:06Z</time>
      </trkpt>
      <trkpt lat="44.94114" lon="0.78056">
        <ele>191</ele>
        <time>2021-05-23T09:47:11Z</time>
      </trkpt>
      <trkpt lat="44.94118" lon="0.7807">
        <ele>189.2</ele>
        <time>2021-05-23T09:47:15Z</time>
      </trkpt>
      <trkpt lat="44.94121" lon="0.78087">
        <ele>187.8</ele>
        <time>2021-05-23T09:47:19Z</time>
      </trkpt>
      <trkpt lat="44.94129" lon="0.78103">
        <ele>187.4</ele>
        <time>2021-05-23T09:47:23Z</time>
      </trkpt>
      <trkpt lat="44.94135" lon="0.78116">
        <ele>188.6</ele>
        <time>2021-05-23T09:47:27Z</time>
      </trkpt>
      <trkpt lat="44.94139" lon="0.78128">
        <ele>187.4</ele>
        <time>2021-05-23T09:47:31Z</time>
      </trkpt>
      <trkpt lat="44.94145" lon="0.78142">
        <ele>180.5</ele>
        <time>2021-05-23T09:47:35Z</time>
      </trkpt>
      <trkpt lat="44.94155" lon="0.78161">
        <ele>180</ele>
        <time>2021-05-23T09:47:39Z</time>
      </trkpt>
      <trkpt lat="44.94161" lon="0.78176">
        <ele>179.3</ele>
        <time>2021-05-23T09:47:43Z</time>
      </trkpt>
      <trkpt lat="44.94175" lon="0.78208">
        <ele>177.4</ele>
        <time>2021-05-23T09:47:47Z</time>
      </trkpt>
      <trkpt lat="44.94174" lon="0.78231">
        <ele>175</ele>
        <time>2021-05-23T09:47:51Z</time>
      </trkpt>
      <trkpt lat="44.94175" lon="0.78258">
        <ele>172.7</ele>
        <time>2021-05-23T09:47:55Z</time>
      </trkpt>
      <trkpt lat="44.9418" lon="0.78289">
        <ele>170.8</ele>
        <time>2021-05-23T09:48:00Z</time>
      </trkpt>
      <trkpt lat="44.94175" lon="0.7831">
        <ele>169.4</ele>
        <time>2021-05-23T09:48:04Z</time>
      </trkpt>
      <trkpt lat="44.94174" lon="0.78328">
        <ele>168.2</ele>
        <time>2021-05-23T09:48:08Z</time>
      </trkpt>
      <trkpt lat="44.94171" lon="0.78348">
        <ele>167.4</ele>
        <time>2021-05-23T09:48:12Z</time>
      </trkpt>
      <trkpt lat="44.94171" lon="0.7837">
        <ele>166.6</ele>
        <time>2021-05-23T09:48:16Z</time>
      </trkpt>
      <trkpt lat="44.9417" lon="0.78385">
        <ele>166.1</ele>
        <time>2021-05-23T09:48:20Z</time>
      </trkpt>
      <trkpt lat="44.94171" lon="0.78405">
        <ele>165.3</ele>
        <time>2021-05-23T09:48:24Z</time>
      </trkpt>
      <trkpt lat="44.94172" lon="0.7842">
        <ele>164.8</ele>
        <time>2021-05-23T09:48:28Z</time>
      </trkpt>
      <trkpt lat="44.94172" lon="0.78439">
        <ele>164.5</ele>
        <time>2021-05-23T09:48:32Z</time>
      </trkpt>
      <trkpt lat="44.94174" lon="0.78458">
        <ele>164.2</ele>
        <time>2021-05-23T09:48:36Z</time>
      </trkpt>
      <trkpt lat="44.94173" lon="0.78475">
        <ele>164</ele>
        <time>2021-05-23T09:48:40Z</time>
      </trkpt>
      <trkpt lat="44.94172" lon="0.78491">
        <ele>163.8</ele>
        <time>2021-05-23T09:48:44Z</time>
      </trkpt>
      <trkpt lat="44.94171" lon="0.78505">
        <ele>163.6</ele>
        <time>2021-05-23T09:48:49Z</time>
      </trkpt>
      <trkpt lat="44.94161" lon="0.78516">
        <ele>163</ele>
        <time>2021-05-23T09:48:53Z</time>
      </trkpt>
      <trkpt lat="44.94153" lon="0.78527">
        <ele>162.1</ele>
        <time>2021-05-23T09:48:57Z</time>
      </trkpt>
      <trkpt lat="44.94142" lon="0.78539">
        <ele>161.1</ele>
        <time>2021-05-23T09:49:01Z</time>
      </trkpt>
      <trkpt lat="44.94128" lon="0.7855">
        <ele>160</ele>
        <time>2021-05-23T09:49:05Z</time>
      </trkpt>
      <trkpt lat="44.94113" lon="0.78559">
        <ele>159.1</ele>
        <time>2021-05-23T09:49:09Z</time>
      </trkpt>
      <trkpt lat="44.94094" lon="0.78567">
        <ele>158</ele>
        <time>2021-05-23T09:49:13Z</time>
      </trkpt>
      <trkpt lat="44.94079" lon="0.78574">
        <ele>156.7</ele>
        <time>2021-05-23T09:49:17Z</time>
      </trkpt>
      <trkpt lat="44.94067" lon="0.78582">
        <ele>154.5</ele>
        <time>2021-05-23T09:49:21Z</time>
      </trkpt>
      <trkpt lat="44.94053" lon="0.78591">
        <ele>152</ele>
        <time>2021-05-23T09:49:25Z</time>
      </trkpt>
      <trkpt lat="44.94035" lon="0.78597">
        <ele>149</ele>
        <time>2021-05-23T09:49:29Z</time>
      </trkpt>
      <trkpt lat="44.94032" lon="0.78633">
        <ele>147.3</ele>
        <time>2021-05-23T09:49:33Z</time>
      </trkpt>
      <trkpt lat="44.94037" lon="0.78665">
        <ele>147</ele>
        <time>2021-05-23T09:49:38Z</time>
      </trkpt>
      <trkpt lat="44.94045" lon="0.78684">
        <ele>147.3</ele>
        <time>2021-05-23T09:49:42Z</time>
      </trkpt>
      <trkpt lat="44.94055" lon="0.78699">
        <ele>147.7</ele>
        <time>2021-05-23T09:49:46Z</time>
      </trkpt>
      <trkpt lat="44.94065" lon="0.78714">
        <ele>147.7</ele>
        <time>2021-05-23T09:49:50Z</time>
      </trkpt>
      <trkpt lat="44.94073" lon="0.78727">
        <ele>147.4</ele>
        <time>2021-05-23T09:49:54Z</time>
      </trkpt>
      <trkpt lat="44.94083" lon="0.78743">
        <ele>146.6</ele>
        <time>2021-05-23T09:49:58Z</time>
      </trkpt>
      <trkpt lat="44.94093" lon="0.78759">
        <ele>146.6</ele>
        <time>2021-05-23T09:50:02Z</time>
      </trkpt>
      <trkpt lat="44.94101" lon="0.78774">
        <ele>147.2</ele>
        <time>2021-05-23T09:50:06Z</time>
      </trkpt>
      <trkpt lat="44.94107" lon="0.78783">
        <ele>147.6</ele>
        <time>2021-05-23T09:50:10Z</time>
      </trkpt>
      <trkpt lat="44.94109" lon="0.78789">
        <ele>147.8</ele>
        <time>2021-05-23T09:50:14Z</time>
      </trkpt>
      <trkpt lat="44.94118" lon="0.78801">
        <ele>148.7</ele>
      </trkpt>
      <trkpt lat="44.94125" lon="0.78793">
        <ele>149.5</ele>
      </trkpt>
      <trkpt lat="44.94135" lon="0.78794">
        <ele>156</ele>
        <time>2021-05-23T09:50:18Z</time>
      </trkpt>
      <trkpt lat="44.94135" lon="0.78802">
        <ele>150.7</ele>
        <time>2021-05-23T09:50:22Z</time>
      </trkpt>
      <trkpt lat="44.94144" lon="0.78812">
        <ele>151.8</ele>
        <time>2021-05-23T09:50:27Z</time>
      </trkpt>
      <trkpt lat="44.9415" lon="0.78819">
        <ele>152.6</ele>
        <time>2021-05-23T09:50:31Z</time>
      </trkpt>
      <trkpt lat="44.94158" lon="0.78824">
        <ele>153.7</ele>
        <time>2021-05-23T09:50:35Z</time>
      </trkpt>
      <trkpt lat="44.94164" lon="0.78829">
        <ele>154.5</ele>
        <time>2021-05-23T09:50:39Z</time>
      </trkpt>
      <trkpt lat="44.94174" lon="0.78827">
        <ele>155.6</ele>
        <time>2021-05-23T09:50:43Z</time>
      </trkpt>
      <trkpt lat="44.94184" lon="0.78821">
        <ele>156.5</ele>
        <time>2021-05-23T09:50:47Z</time>
      </trkpt>
      <trkpt lat="44.94194" lon="0.78817">
        <ele>157.3</ele>
        <time>2021-05-23T09:50:51Z</time>
      </trkpt>
      <trkpt lat="44.94203" lon="0.78812">
        <ele>158.1</ele>
        <time>2021-05-23T09:50:55Z</time>
      </trkpt>
      <trkpt lat="44.94213" lon="0.78809">
        <ele>170.4</ele>
        <time>2021-05-23T09:50:59Z</time>
      </trkpt>
      <trkpt lat="44.94224" lon="0.78807">
        <ele>172</ele>
        <time>2021-05-23T09:51:03Z</time>
      </trkpt>
      <trkpt lat="44.94235" lon="0.78805">
        <ele>160.9</ele>
        <time>2021-05-23T09:51:07Z</time>
      </trkpt>
      <trkpt lat="44.94244" lon="0.78806">
        <ele>161.8</ele>
        <time>2021-05-23T09:51:11Z</time>
      </trkpt>
      <trkpt lat="44.94254" lon="0.78803">
        <ele>162.6</ele>
        <time>2021-05-23T09:51:16Z</time>
      </trkpt>
      <trkpt lat="44.94268" lon="0.78801">
        <ele>163.6</ele>
        <time>2021-05-23T09:51:20Z</time>
      </trkpt>
      <trkpt lat="44.9428" lon="0.78793">
        <ele>164.2</ele>
        <time>2021-05-23T09:51:24Z</time>
      </trkpt>
      <trkpt lat="44.94289" lon="0.7879">
        <ele>164.9</ele>
        <time>2021-05-23T09:51:28Z</time>
      </trkpt>
      <trkpt lat="44.94298" lon="0.78786">
        <ele>165.5</ele>
        <time>2021-05-23T09:51:32Z</time>
      </trkpt>
      <trkpt lat="44.94305" lon="0.78783">
        <ele>166</ele>
        <time>2021-05-23T09:51:36Z</time>
      </trkpt>
      <trkpt lat="44.94319" lon="0.78782">
        <ele>167.2</ele>
        <time>2021-05-23T09:51:40Z</time>
      </trkpt>
      <trkpt lat="44.94327" lon="0.78777">
        <ele>167.7</ele>
        <time>2021-05-23T09:51:44Z</time>
      </trkpt>
      <trkpt lat="44.94339" lon="0.78777">
        <ele>168.8</ele>
        <time>2021-05-23T09:51:48Z</time>
      </trkpt>
      <trkpt lat="44.94354" lon="0.78773">
        <ele>169.8</ele>
        <time>2021-05-23T09:51:52Z</time>
      </trkpt>
      <trkpt lat="44.94367" lon="0.78777">
        <ele>171</ele>
        <time>2021-05-23T09:51:56Z</time>
      </trkpt>
      <trkpt lat="44.94377" lon="0.78773">
        <ele>183.8</ele>
        <time>2021-05-23T09:52:00Z</time>
      </trkpt>
      <trkpt lat="44.94388" lon="0.78771">
        <ele>184.6</ele>
        <time>2021-05-23T09:52:04Z</time>
      </trkpt>
      <trkpt lat="44.94402" lon="0.78768">
        <ele>173.5</ele>
        <time>2021-05-23T09:52:09Z</time>
      </trkpt>
      <trkpt lat="44.94412" lon="0.7877">
        <ele>174.4</ele>
        <time>2021-05-23T09:52:13Z</time>
      </trkpt>
      <trkpt lat="44.94423" lon="0.7877">
        <ele>175.6</ele>
        <time>2021-05-23T09:52:17Z</time>
      </trkpt>
      <trkpt lat="44.94432" lon="0.78767">
        <ele>176.8</ele>
        <time>2021-05-23T09:52:21Z</time>
      </trkpt>
      <trkpt lat="44.94445" lon="0.78763">
        <ele>187.6</ele>
        <time>2021-05-23T09:52:25Z</time>
      </trkpt>
      <trkpt lat="44.94452" lon="0.78766">
        <ele>189</ele>
        <time>2021-05-23T09:52:29Z</time>
      </trkpt>
      <trkpt lat="44.94459" lon="0.78768">
        <ele>190.6</ele>
        <time>2021-05-23T09:52:33Z</time>
      </trkpt>
      <trkpt lat="44.94464" lon="0.7877">
        <ele>192.6</ele>
        <time>2021-05-23T09:52:37Z</time>
      </trkpt>
      <trkpt lat="44.94469" lon="0.78773">
        <ele>194.6</ele>
        <time>2021-05-23T09:52:41Z</time>
      </trkpt>
      <trkpt lat="44.94485" lon="0.7878">
        <ele>196.8</ele>
        <time>2021-05-23T09:52:45Z</time>
      </trkpt>
      <trkpt lat="44.94489" lon="0.78784">
        <ele>185.7</ele>
        <time>2021-05-23T09:52:49Z</time>
      </trkpt>
      <trkpt lat="44.945" lon="0.78789">
        <ele>187.4</ele>
        <time>2021-05-23T09:52:53Z</time>
      </trkpt>
      <trkpt lat="44.94515" lon="0.7879">
        <ele>189.4</ele>
        <time>2021-05-23T09:52:58Z</time>
      </trkpt>
      <trkpt lat="44.9453" lon="0.78785">
        <ele>191</ele>
        <time>2021-05-23T09:53:02Z</time>
      </trkpt>
      <trkpt lat="44.9454" lon="0.78783">
        <ele>192.1</ele>
        <time>2021-05-23T09:53:06Z</time>
      </trkpt>
      <trkpt lat="44.94546" lon="0.78784">
        <ele>192.9</ele>
        <time>2021-05-23T09:53:10Z</time>
      </trkpt>
      <trkpt lat="44.94551" lon="0.78786">
        <ele>193.7</ele>
        <time>2021-05-23T09:53:14Z</time>
      </trkpt>
      <trkpt lat="44.94559" lon="0.78786">
        <ele>194.6</ele>
        <time>2021-05-23T09:53:18Z</time>
      </trkpt>
      <trkpt lat="44.94567" lon="0.7879">
        <ele>195.9</ele>
        <time>2021-05-23T09:53:22Z</time>
      </trkpt>
      <trkpt lat="44.94588" lon="0.788">
        <ele>198.6</ele>
        <time>2021-05-23T09:53:26Z</time>
      </trkpt>
      <trkpt lat="44.94608" lon="0.7881">
        <ele>208.4</ele>
        <time>2021-05-23T09:53:30Z</time>
      </trkpt>
      <trkpt lat="44.94619" lon="0.78825">
        <ele>200.2</ele>
        <time>2021-05-23T09:53:34Z</time>
      </trkpt>
      <trkpt lat="44.94631" lon="0.78837">
        <ele>200.3</ele>
        <time>2021-05-23T09:53:38Z</time>
      </trkpt>
      <trkpt lat="44.94636" lon="0.78852">
        <ele>199.1</ele>
        <time>2021-05-23T09:53:42Z</time>
      </trkpt>
      <trkpt lat="44.94644" lon="0.7887">
        <ele>197.8</ele>
        <time>2021-05-23T09:53:47Z</time>
      </trkpt>
      <trkpt lat="44.9465" lon="0.78889">
        <ele>196.4</ele>
        <time>2021-05-23T09:53:51Z</time>
      </trkpt>
      <trkpt lat="44.94657" lon="0.7891">
        <ele>195.1</ele>
        <time>2021-05-23T09:53:55Z</time>
      </trkpt>
      <trkpt lat="44.94662" lon="0.78926">
        <ele>194.3</ele>
        <time>2021-05-23T09:53:59Z</time>
      </trkpt>
      <trkpt lat="44.94661" lon="0.78934">
        <ele>193.9</ele>
        <time>2021-05-23T09:54:03Z</time>
      </trkpt>
      <trkpt lat="44.9466" lon="0.7895">
        <ele>193.1</ele>
        <time>2021-05-23T09:54:07Z</time>
      </trkpt>
      <trkpt lat="44.94651" lon="0.78967">
        <ele>191.9</ele>
        <time>2021-05-23T09:54:11Z</time>
      </trkpt>
      <trkpt lat="44.94644" lon="0.78984">
        <ele>190.9</ele>
        <time>2021-05-23T09:54:15Z</time>
      </trkpt>
      <trkpt lat="44.94638" lon="0.78999">
        <ele>190</ele>
        <time>2021-05-23T09:54:19Z</time>
      </trkpt>
      <trkpt lat="44.94629" lon="0.79013">
        <ele>188.7</ele>
        <time>2021-05-23T09:54:23Z</time>
      </trkpt>
      <trkpt lat="44.94619" lon="0.79032">
        <ele>187</ele>
        <time>2021-05-23T09:54:27Z</time>
      </trkpt>
      <trkpt lat="44.9461" lon="0.79046">
        <ele>185.9</ele>
        <time>2021-05-23T09:54:31Z</time>
      </trkpt>
      <trkpt lat="44.94599" lon="0.79061">
        <ele>184.6</ele>
        <time>2021-05-23T09:54:36Z</time>
      </trkpt>
      <trkpt lat="44.94589" lon="0.79074">
        <ele>183.6</ele>
        <time>2021-05-23T09:54:40Z</time>
      </trkpt>
      <trkpt lat="44.94577" lon="0.79087">
        <ele>182.4</ele>
        <time>2021-05-23T09:54:44Z</time>
      </trkpt>
      <trkpt lat="44.94565" lon="0.791">
        <ele>181</ele>
        <time>2021-05-23T09:54:48Z</time>
      </trkpt>
      <trkpt lat="44.94553" lon="0.79118">
        <ele>179.5</ele>
        <time>2021-05-23T09:54:52Z</time>
      </trkpt>
      <trkpt lat="44.94542" lon="0.79132">
        <ele>178.4</ele>
        <time>2021-05-23T09:54:56Z</time>
      </trkpt>
      <trkpt lat="44.9453" lon="0.79147">
        <ele>177.2</ele>
        <time>2021-05-23T09:55:00Z</time>
      </trkpt>
      <trkpt lat="44.94513" lon="0.79165">
        <ele>175.8</ele>
        <time>2021-05-23T09:55:04Z</time>
      </trkpt>
      <trkpt lat="44.94504" lon="0.79177">
        <ele>175.3</ele>
        <time>2021-05-23T09:55:08Z</time>
      </trkpt>
      <trkpt lat="44.94491" lon="0.79193">
        <ele>174.8</ele>
        <time>2021-05-23T09:55:12Z</time>
      </trkpt>
      <trkpt lat="44.94486" lon="0.79234">
        <ele>185</ele>
        <time>2021-05-23T09:55:20Z</time>
      </trkpt>
      <trkpt lat="44.94486" lon="0.79258">
        <ele>183.4</ele>
        <time>2021-05-23T09:55:25Z</time>
      </trkpt>
      <trkpt lat="44.94483" lon="0.79278">
        <ele>173.6</ele>
        <time>2021-05-23T09:55:29Z</time>
      </trkpt>
      <trkpt lat="44.94477" lon="0.79294">
        <ele>172.7</ele>
        <time>2021-05-23T09:55:33Z</time>
      </trkpt>
      <trkpt lat="44.94474" lon="0.79309">
        <ele>172</ele>
        <time>2021-05-23T09:55:37Z</time>
      </trkpt>
      <trkpt lat="44.94466" lon="0.79319">
        <ele>179.6</ele>
        <time>2021-05-23T09:55:41Z</time>
      </trkpt>
      <trkpt lat="44.94453" lon="0.79324">
        <ele>178.2</ele>
        <time>2021-05-23T09:55:45Z</time>
      </trkpt>
      <trkpt lat="44.94439" lon="0.79327">
        <ele>176.8</ele>
        <time>2021-05-23T09:55:49Z</time>
      </trkpt>
      <trkpt lat="44.9443" lon="0.79334">
        <ele>175.6</ele>
        <time>2021-05-23T09:55:53Z</time>
      </trkpt>
      <trkpt lat="44.9442" lon="0.7934">
        <ele>170.3</ele>
        <time>2021-05-23T09:55:57Z</time>
      </trkpt>
      <trkpt lat="44.94407" lon="0.79348">
        <ele>168.5</ele>
        <time>2021-05-23T09:56:01Z</time>
      </trkpt>
      <trkpt lat="44.94397" lon="0.7936">
        <ele>166.5</ele>
        <time>2021-05-23T09:56:05Z</time>
      </trkpt>
      <trkpt lat="44.94388" lon="0.79369">
        <ele>165</ele>
        <time>2021-05-23T09:56:09Z</time>
      </trkpt>
      <trkpt lat="44.94376" lon="0.79401">
        <ele>161.7</ele>
        <time>2021-05-23T09:56:14Z</time>
      </trkpt>
      <trkpt lat="44.94362" lon="0.79441">
        <ele>158.6</ele>
        <time>2021-05-23T09:56:18Z</time>
      </trkpt>
      <trkpt lat="44.94349" lon="0.79469">
        <ele>156.1</ele>
        <time>2021-05-23T09:56:22Z</time>
      </trkpt>
      <trkpt lat="44.94365" lon="0.79479">
        <ele>156.5</ele>
        <time>2021-05-23T09:56:26Z</time>
      </trkpt>
      <trkpt lat="44.94376" lon="0.79489">
        <ele>156.7</ele>
        <time>2021-05-23T09:56:30Z</time>
      </trkpt>
      <trkpt lat="44.94387" lon="0.795">
        <ele>156.9</ele>
        <time>2021-05-23T09:56:34Z</time>
      </trkpt>
      <trkpt lat="44.94399" lon="0.79505">
        <ele>157.9</ele>
        <time>2021-05-23T09:56:38Z</time>
      </trkpt>
      <trkpt lat="44.94409" lon="0.79511">
        <ele>158.9</ele>
        <time>2021-05-23T09:56:42Z</time>
      </trkpt>
      <trkpt lat="44.94418" lon="0.7951">
        <ele>159.6</ele>
        <time>2021-05-23T09:56:46Z</time>
      </trkpt>
      <trkpt lat="44.9443" lon="0.79514">
        <ele>161.3</ele>
        <time>2021-05-23T09:56:50Z</time>
      </trkpt>
      <trkpt lat="44.94441" lon="0.79513">
        <ele>162.5</ele>
        <time>2021-05-23T09:56:54Z</time>
      </trkpt>
      <trkpt lat="44.94452" lon="0.79515">
        <ele>163.9</ele>
        <time>2021-05-23T09:56:58Z</time>
      </trkpt>
      <trkpt lat="44.94463" lon="0.79513">
        <ele>165.2</ele>
        <time>2021-05-23T09:57:03Z</time>
      </trkpt>
      <trkpt lat="44.94468" lon="0.79512">
        <ele>165.7</ele>
        <time>2021-05-23T09:57:07Z</time>
      </trkpt>
      <trkpt lat="44.94475" lon="0.79513">
        <ele>166.6</ele>
        <time>2021-05-23T09:57:11Z</time>
      </trkpt>
      <trkpt lat="44.94485" lon="0.79516">
        <ele>168</ele>
        <time>2021-05-23T09:57:15Z</time>
      </trkpt>
      <trkpt lat="44.94492" lon="0.79518">
        <ele>168.9</ele>
        <time>2021-05-23T09:57:19Z</time>
      </trkpt>
      <trkpt lat="44.94503" lon="0.79516">
        <ele>170.1</ele>
        <time>2021-05-23T09:57:23Z</time>
      </trkpt>
      <trkpt lat="44.94514" lon="0.79521">
        <ele>171.5</ele>
        <time>2021-05-23T09:57:27Z</time>
      </trkpt>
      <trkpt lat="44.94524" lon="0.79523">
        <ele>172.8</ele>
        <time>2021-05-23T09:57:31Z</time>
      </trkpt>
      <trkpt lat="44.94534" lon="0.79526">
        <ele>174</ele>
        <time>2021-05-23T09:57:35Z</time>
      </trkpt>
      <trkpt lat="44.94544" lon="0.79527">
        <ele>183.8</ele>
        <time>2021-05-23T09:57:39Z</time>
      </trkpt>
      <trkpt lat="44.94556" lon="0.79532">
        <ele>184.4</ele>
        <time>2021-05-23T09:57:43Z</time>
      </trkpt>
      <trkpt lat="44.94566" lon="0.79533">
        <ele>186.2</ele>
        <time>2021-05-23T09:57:47Z</time>
      </trkpt>
      <trkpt lat="44.94576" lon="0.79532">
        <ele>188.4</ele>
        <time>2021-05-23T09:57:51Z</time>
      </trkpt>
      <trkpt lat="44.94586" lon="0.79531">
        <ele>188.8</ele>
        <time>2021-05-23T09:57:56Z</time>
      </trkpt>
      <trkpt lat="44.94592" lon="0.79531">
        <ele>181.1</ele>
        <time>2021-05-23T09:58:00Z</time>
      </trkpt>
      <trkpt lat="44.94602" lon="0.79532">
        <ele>182.5</ele>
        <time>2021-05-23T09:58:04Z</time>
      </trkpt>
      <trkpt lat="44.94613" lon="0.7953">
        <ele>183.9</ele>
        <time>2021-05-23T09:58:08Z</time>
      </trkpt>
      <trkpt lat="44.94623" lon="0.79531">
        <ele>185.4</ele>
        <time>2021-05-23T09:58:12Z</time>
      </trkpt>
      <trkpt lat="44.9463" lon="0.79532">
        <ele>186.4</ele>
        <time>2021-05-23T09:58:16Z</time>
      </trkpt>
      <trkpt lat="44.94639" lon="0.7953">
        <ele>187.6</ele>
        <time>2021-05-23T09:58:20Z</time>
      </trkpt>
      <trkpt lat="44.94649" lon="0.79529">
        <ele>189</ele>
        <time>2021-05-23T09:58:24Z</time>
      </trkpt>
      <trkpt lat="44.94659" lon="0.79526">
        <ele>190.2</ele>
        <time>2021-05-23T09:58:28Z</time>
      </trkpt>
      <trkpt lat="44.94671" lon="0.79526">
        <ele>191.7</ele>
        <time>2021-05-23T09:58:32Z</time>
      </trkpt>
      <trkpt lat="44.94685" lon="0.79522">
        <ele>193.1</ele>
        <time>2021-05-23T09:58:36Z</time>
      </trkpt>
      <trkpt lat="44.94705" lon="0.7952">
        <ele>195.4</ele>
        <time>2021-05-23T09:58:40Z</time>
      </trkpt>
      <trkpt lat="44.94708" lon="0.79526">
        <ele>195.9</ele>
        <time>2021-05-23T09:58:45Z</time>
      </trkpt>
      <trkpt lat="44.94707" lon="0.79545">
        <ele>196.5</ele>
        <time>2021-05-23T09:58:49Z</time>
      </trkpt>
      <trkpt lat="44.94706" lon="0.79558">
        <ele>196.8</ele>
        <time>2021-05-23T09:58:53Z</time>
      </trkpt>
      <trkpt lat="44.94704" lon="0.79572">
        <ele>197.2</ele>
        <time>2021-05-23T09:58:57Z</time>
      </trkpt>
      <trkpt lat="44.94703" lon="0.79587">
        <ele>204.8</ele>
        <time>2021-05-23T09:59:01Z</time>
      </trkpt>
      <trkpt lat="44.94703" lon="0.79603">
        <ele>197.2</ele>
        <time>2021-05-23T09:59:05Z</time>
      </trkpt>
      <trkpt lat="44.94701" lon="0.79617">
        <ele>196.8</ele>
        <time>2021-05-23T09:59:09Z</time>
      </trkpt>
      <trkpt lat="44.94702" lon="0.79629">
        <ele>196.6</ele>
        <time>2021-05-23T09:59:13Z</time>
      </trkpt>
      <trkpt lat="44.94702" lon="0.79647">
        <ele>196.3</ele>
        <time>2021-05-23T09:59:17Z</time>
      </trkpt>
      <trkpt lat="44.94701" lon="0.79657">
        <ele>196</ele>
        <time>2021-05-23T09:59:21Z</time>
      </trkpt>
      <trkpt lat="44.94701" lon="0.79676">
        <ele>196.1</ele>
        <time>2021-05-23T09:59:25Z</time>
      </trkpt>
      <trkpt lat="44.94698" lon="0.79699">
        <ele>202</ele>
        <time>2021-05-23T09:59:29Z</time>
      </trkpt>
      <trkpt lat="44.94696" lon="0.79728">
        <ele>197.8</ele>
        <time>2021-05-23T09:59:34Z</time>
      </trkpt>
      <trkpt lat="44.94696" lon="0.79748">
        <ele>198.6</ele>
        <time>2021-05-23T09:59:38Z</time>
      </trkpt>
      <trkpt lat="44.94696" lon="0.79764">
        <ele>198.7</ele>
        <time>2021-05-23T09:59:42Z</time>
      </trkpt>
      <trkpt lat="44.947" lon="0.79781">
        <ele>203.6</ele>
        <time>2021-05-23T09:59:46Z</time>
      </trkpt>
      <trkpt lat="44.94703" lon="0.79803">
        <ele>198.7</ele>
        <time>2021-05-23T09:59:50Z</time>
      </trkpt>
      <trkpt lat="44.94706" lon="0.79828">
        <ele>198.7</ele>
        <time>2021-05-23T09:59:54Z</time>
      </trkpt>
      <trkpt lat="44.94713" lon="0.79846">
        <ele>196.6</ele>
        <time>2021-05-23T09:59:58Z</time>
      </trkpt>
      <trkpt lat="44.94718" lon="0.79858">
        <ele>194.8</ele>
        <time>2021-05-23T10:00:02Z</time>
      </trkpt>
      <trkpt lat="44.94723" lon="0.79881">
        <ele>191.3</ele>
        <time>2021-05-23T10:00:06Z</time>
      </trkpt>
      <trkpt lat="44.94729" lon="0.79898">
        <ele>188.6</ele>
        <time>2021-05-23T10:00:10Z</time>
      </trkpt>
      <trkpt lat="44.94736" lon="0.79916">
        <ele>185.4</ele>
        <time>2021-05-23T10:00:14Z</time>
      </trkpt>
      <trkpt lat="44.94741" lon="0.79934">
        <ele>182.6</ele>
        <time>2021-05-23T10:00:18Z</time>
      </trkpt>
      <trkpt lat="44.94749" lon="0.79959">
        <ele>178.4</ele>
        <time>2021-05-23T10:00:23Z</time>
      </trkpt>
      <trkpt lat="44.94757" lon="0.7998">
        <ele>175.3</ele>
        <time>2021-05-23T10:00:27Z</time>
      </trkpt>
      <trkpt lat="44.94766" lon="0.80007">
        <ele>172.2</ele>
        <time>2021-05-23T10:00:31Z</time>
      </trkpt>
      <trkpt lat="44.94777" lon="0.8003">
        <ele>171.5</ele>
        <time>2021-05-23T10:00:35Z</time>
      </trkpt>
      <trkpt lat="44.94785" lon="0.80046">
        <ele>171.4</ele>
        <time>2021-05-23T10:00:39Z</time>
      </trkpt>
      <trkpt lat="44.94791" lon="0.8006">
        <ele>171.5</ele>
        <time>2021-05-23T10:00:43Z</time>
      </trkpt>
      <trkpt lat="44.94797" lon="0.80075">
        <ele>171.8</ele>
        <time>2021-05-23T10:00:47Z</time>
      </trkpt>
      <trkpt lat="44.94807" lon="0.80093">
        <ele>173</ele>
        <time>2021-05-23T10:00:51Z</time>
      </trkpt>
      <trkpt lat="44.94799" lon="0.80105">
        <ele>173</ele>
        <time>2021-05-23T10:00:55Z</time>
      </trkpt>
      <trkpt lat="44.94784" lon="0.80121">
        <ele>172.7</ele>
        <time>2021-05-23T10:00:59Z</time>
      </trkpt>
      <trkpt lat="44.94772" lon="0.80138">
        <ele>172.4</ele>
        <time>2021-05-23T10:01:04Z</time>
      </trkpt>
      <trkpt lat="44.9476" lon="0.80155">
        <ele>171.7</ele>
        <time>2021-05-23T10:01:08Z</time>
      </trkpt>
      <trkpt lat="44.94748" lon="0.80173">
        <ele>171</ele>
        <time>2021-05-23T10:01:13Z</time>
      </trkpt>
      <trkpt lat="44.94742" lon="0.8019">
        <ele>171</ele>
        <time>2021-05-23T10:01:17Z</time>
      </trkpt>
      <trkpt lat="44.94734" lon="0.80205">
        <ele>170.8</ele>
        <time>2021-05-23T10:01:21Z</time>
      </trkpt>
      <trkpt lat="44.94725" lon="0.80224">
        <ele>170.5</ele>
        <time>2021-05-23T10:01:25Z</time>
      </trkpt>
      <trkpt lat="44.94721" lon="0.80236">
        <ele>170.3</ele>
        <time>2021-05-23T10:01:29Z</time>
      </trkpt>
      <trkpt lat="44.9472" lon="0.80258">
        <ele>170.2</ele>
        <time>2021-05-23T10:01:33Z</time>
      </trkpt>
      <trkpt lat="44.94721" lon="0.80274">
        <ele>169.5</ele>
        <time>2021-05-23T10:01:37Z</time>
      </trkpt>
      <trkpt lat="44.94722" lon="0.80286">
        <ele>169.1</ele>
        <time>2021-05-23T10:01:41Z</time>
      </trkpt>
      <trkpt lat="44.94726" lon="0.80305">
        <ele>168.4</ele>
        <time>2021-05-23T10:01:45Z</time>
      </trkpt>
      <trkpt lat="44.94724" lon="0.80325">
        <ele>167.4</ele>
        <time>2021-05-23T10:01:49Z</time>
      </trkpt>
      <trkpt lat="44.94728" lon="0.80345">
        <ele>167.2</ele>
        <time>2021-05-23T10:01:53Z</time>
      </trkpt>
      <trkpt lat="44.94734" lon="0.80364">
        <ele>167.3</ele>
        <time>2021-05-23T10:01:57Z</time>
      </trkpt>
      <trkpt lat="44.94736" lon="0.80388">
        <ele>174.4</ele>
        <time>2021-05-23T10:02:02Z</time>
      </trkpt>
      <trkpt lat="44.94737" lon="0.80409">
        <ele>173.4</ele>
        <time>2021-05-23T10:02:06Z</time>
      </trkpt>
      <trkpt lat="44.94731" lon="0.80426">
        <ele>172.6</ele>
        <time>2021-05-23T10:02:10Z</time>
      </trkpt>
      <trkpt lat="44.94716" lon="0.80438">
        <ele>166.8</ele>
        <time>2021-05-23T10:02:14Z</time>
      </trkpt>
      <trkpt lat="44.9471" lon="0.80456">
        <ele>166.8</ele>
        <time>2021-05-23T10:02:18Z</time>
      </trkpt>
      <trkpt lat="44.94706" lon="0.80473">
        <ele>166.8</ele>
      </trkpt>
      <trkpt lat="44.94701" lon="0.80487">
        <ele>178.6</ele>
        <time>2021-05-23T10:04:13Z</time>
      </trkpt>
      <trkpt lat="44.94692" lon="0.80502">
        <ele>165.7</ele>
        <time>2021-05-23T10:04:17Z</time>
      </trkpt>
      <trkpt lat="44.94691" lon="0.80509">
        <ele>165.3</ele>
      </trkpt>
      <trkpt lat="44.94692" lon="0.80513">
        <ele>165.3</ele>
        <time>2021-05-23T10:04:21Z</time>
      </trkpt>
      <trkpt lat="44.9471" lon="0.80525">
        <ele>172</ele>
        <time>2021-05-23T10:04:25Z</time>
      </trkpt>
      <trkpt lat="44.94723" lon="0.80535">
        <ele>170</ele>
        <time>2021-05-23T10:04:29Z</time>
      </trkpt>
      <trkpt lat="44.94733" lon="0.80543">
        <ele>168.6</ele>
        <time>2021-05-23T10:04:33Z</time>
      </trkpt>
      <trkpt lat="44.94745" lon="0.80555">
        <ele>167.2</ele>
        <time>2021-05-23T10:04:37Z</time>
      </trkpt>
      <trkpt lat="44.94753" lon="0.80582">
        <ele>165.6</ele>
        <time>2021-05-23T10:04:42Z</time>
      </trkpt>
      <trkpt lat="44.94747" lon="0.80608">
        <ele>161.8</ele>
        <time>2021-05-23T10:04:46Z</time>
      </trkpt>
      <trkpt lat="44.94742" lon="0.80632">
        <ele>159.9</ele>
        <time>2021-05-23T10:04:50Z</time>
      </trkpt>
      <trkpt lat="44.94738" lon="0.80652">
        <ele>158.3</ele>
        <time>2021-05-23T10:04:54Z</time>
      </trkpt>
      <trkpt lat="44.94734" lon="0.80675">
        <ele>157.4</ele>
        <time>2021-05-23T10:04:58Z</time>
      </trkpt>
      <trkpt lat="44.94728" lon="0.80692">
        <ele>157.9</ele>
        <time>2021-05-23T10:05:02Z</time>
      </trkpt>
      <trkpt lat="44.94721" lon="0.80708">
        <ele>158.3</ele>
        <time>2021-05-23T10:05:06Z</time>
      </trkpt>
      <trkpt lat="44.94711" lon="0.80725">
        <ele>158.9</ele>
        <time>2021-05-23T10:05:10Z</time>
      </trkpt>
      <trkpt lat="44.94704" lon="0.80736">
        <ele>159.2</ele>
        <time>2021-05-23T10:05:14Z</time>
      </trkpt>
      <trkpt lat="44.94711" lon="0.80755">
        <ele>159.6</ele>
        <time>2021-05-23T10:05:18Z</time>
      </trkpt>
      <trkpt lat="44.94701" lon="0.80777">
        <ele>160.4</ele>
        <time>2021-05-23T10:05:22Z</time>
      </trkpt>
      <trkpt lat="44.94694" lon="0.80794">
        <ele>161.1</ele>
        <time>2021-05-23T10:05:26Z</time>
      </trkpt>
      <trkpt lat="44.94686" lon="0.80805">
        <ele>161.6</ele>
        <time>2021-05-23T10:05:30Z</time>
      </trkpt>
      <trkpt lat="44.9468" lon="0.80819">
        <ele>162.2</ele>
        <time>2021-05-23T10:05:35Z</time>
      </trkpt>
      <trkpt lat="44.94694" lon="0.80839">
        <ele>162.5</ele>
        <time>2021-05-23T10:05:39Z</time>
      </trkpt>
      <trkpt lat="44.94705" lon="0.80867">
        <ele>163.1</ele>
        <time>2021-05-23T10:05:43Z</time>
      </trkpt>
      <trkpt lat="44.94716" lon="0.80898">
        <ele>163.7</ele>
        <time>2021-05-23T10:05:47Z</time>
      </trkpt>
      <trkpt lat="44.94691" lon="0.80891">
        <ele>164.3</ele>
        <time>2021-05-23T10:05:51Z</time>
      </trkpt>
      <trkpt lat="44.94679" lon="0.80906">
        <ele>165.2</ele>
        <time>2021-05-23T10:05:55Z</time>
      </trkpt>
      <trkpt lat="44.94671" lon="0.80916">
        <ele>165.8</ele>
        <time>2021-05-23T10:05:59Z</time>
      </trkpt>
      <trkpt lat="44.94663" lon="0.80929">
        <ele>166.4</ele>
        <time>2021-05-23T10:06:03Z</time>
      </trkpt>
      <trkpt lat="44.94655" lon="0.80943">
        <ele>167.2</ele>
        <time>2021-05-23T10:06:07Z</time>
      </trkpt>
      <trkpt lat="44.94647" lon="0.80957">
        <ele>167.8</ele>
        <time>2021-05-23T10:06:11Z</time>
      </trkpt>
      <trkpt lat="44.94635" lon="0.80977">
        <ele>168.4</ele>
        <time>2021-05-23T10:06:15Z</time>
      </trkpt>
    </trkseg>
  </trk>
</gpx>